Little Falls, MN

5:49 AM CDT on March 28, 2017 (GMT -0500)
Little Falls-Morrison County

Weather History for KLXL - September, 2013

Change the Weather History Date:

Thursday, September 5, 2013

  Actual Average Record
Temperature  
Mean Temperature 68 °F -  
Max Temperature 82 °F 77 °F 97 °F (1947)
Min Temperature 53 °F 51 °F 35 °F (1962)
Cooling Degree Days 2    
Growing Degree Days 18 (Base 50)    
Moisture  
Dew Point 51 °F    
Average Humidity 60    
Maximum Humidity 94    
Minimum Humidity 26    
Precipitation  
Precipitation 0.00 in - - ()
Sea Level Pressure  
Sea Level Pressure 30.18 in    
Wind  
Wind Speed 3 mph (SE)    
Max Wind Speed 10 mph    
Max Gust Speed -    
Visibility 10 miles    
Events      
Averages and records for this station are not official NWS values.
T = Trace of Precipitation, MM = Missing Value Source: NWS Daily Summary

Daily Weather History Graph

Daily Weather History Graph

Search for Another Location

Airport or City:

Trip Planner

Search our weather history database for the weather conditions in past years. The results will help you decide how hot, cold, wet, or windy it might be!

Date:

Astronomy

Sep. 05, 2013 Rise Set
Actual Time 6:43 AM CDT 7:47 PM CDT
Civil Twilight 6:12 AM CDT 8:18 PM CDT
Nautical Twilight 5:36 AM CDT 8:54 PM CDT
Astronomical Twilight 4:57 AM CDT 9:33 PM CDT
Moon 6:59 AM CDT (9/5) 7:34 PM CDT (9/5)
Length of Visible Light 14h 05m
Length of Day
13h 04m
New Moon, 0% of the Moon is Illuminated
Sep 5
New Moon
Sep 12
First Quarter
Sep 19
Full
Sep 26
Last Quarter
Oct 4
New

Hourly Weather History & Observations

Time (CDT) Temp. Heat Index Dew Point Humidity Pressure Visibility Wind Dir Wind Speed Gust Speed Precip Events Conditions
12:15 AM 59.0 °F - 53.6 °F 82% 30.19 in 10.0 mi Calm Calm - N/A   Clear
12:34 AM 59.0 °F - 51.8 °F 77% 30.19 in 10.0 mi Calm Calm - N/A   Clear
12:54 AM 55.4 °F - 51.8 °F 88% 30.19 in 10.0 mi Calm Calm - N/A   Clear
1:14 AM 55.4 °F - 51.8 °F 88% 30.20 in 10.0 mi Calm Calm - N/A   Clear
1:34 AM 55.4 °F - 51.8 °F 88% 30.20 in 10.0 mi Calm Calm - N/A   Clear
1:55 AM 55.4 °F - 51.8 °F 88% 30.20 in 10.0 mi Calm Calm - N/A   Clear
2:14 AM 55.4 °F - 51.8 °F 88% 30.20 in 10.0 mi Calm Calm - N/A   Clear
2:34 AM 53.6 °F - 50.0 °F 88% 30.20 in 10.0 mi Calm Calm - N/A   Clear
2:54 AM 53.6 °F - 51.8 °F 94% 30.20 in 10.0 mi Calm Calm - N/A   Clear
3:14 AM 55.4 °F - 51.8 °F 88% 30.20 in 10.0 mi Calm Calm - N/A   Clear
3:34 AM 55.4 °F - 51.8 °F 88% 30.20 in 10.0 mi Calm Calm - N/A   Clear
3:54 AM 55.4 °F - 51.8 °F 88% 30.20 in 10.0 mi Calm Calm - N/A   Clear
4:14 AM 55.4 °F - 51.8 °F 88% 30.20 in 10.0 mi Calm Calm - N/A   Clear
4:35 AM 55.4 °F - 51.8 °F 88% 30.21 in 10.0 mi Calm Calm - N/A   Clear
4:54 AM 53.6 °F - 51.8 °F 94% 30.21 in 10.0 mi Calm Calm - N/A   Clear
5:14 AM 53.6 °F - 51.8 °F 94% 30.21 in 10.0 mi Calm Calm - N/A   Clear
5:35 AM 55.4 °F - 51.8 °F 88% 30.21 in 10.0 mi Calm Calm - N/A   Clear
5:54 AM 53.6 °F - 51.8 °F 94% 30.22 in 10.0 mi Calm Calm - N/A   Clear
6:14 AM 53.6 °F - 50.0 °F 88% 30.23 in 10.0 mi Calm Calm - N/A   Clear
6:34 AM 53.6 °F - 50.0 °F 88% 30.23 in 10.0 mi Calm Calm - N/A   Clear
6:54 AM 53.6 °F - 50.0 °F 88% 30.23 in 10.0 mi Calm Calm - N/A   Clear
7:15 AM 53.6 °F - 50.0 °F 88% 30.23 in 10.0 mi ENE 3.5 mph - N/A   Clear
7:34 AM 53.6 °F - 51.8 °F 94% 30.24 in 10.0 mi Calm Calm - N/A   Clear
7:54 AM 55.4 °F - 51.8 °F 88% 30.23 in 10.0 mi East 3.5 mph - N/A   Clear
8:14 AM 59.0 °F - 48.2 °F 67% 30.23 in 10.0 mi East 4.6 mph - N/A   Clear
8:34 AM 60.8 °F - 46.4 °F 59% 30.23 in 10.0 mi East 4.6 mph - N/A   Clear
8:55 AM 60.8 °F - 46.4 °F 59% 30.23 in 10.0 mi East 4.6 mph - N/A   Clear
9:14 AM 62.6 °F - 44.6 °F 52% 30.23 in 10.0 mi ESE 4.6 mph - N/A   Clear
9:34 AM 64.4 °F - 42.8 °F 45% 30.23 in 10.0 mi ESE 6.9 mph - N/A   Clear
9:55 AM 68.0 °F - 41.0 °F 37% 30.23 in 10.0 mi SE 6.9 mph - N/A   Clear
10:14 AM 68.0 °F - 41.0 °F 37% 30.24 in 10.0 mi ESE 6.9 mph - N/A   Clear
10:35 AM 69.8 °F - 41.0 °F 35% 30.23 in 10.0 mi SE 8.1 mph - N/A   Clear
10:54 AM 71.6 °F - 42.8 °F 35% 30.23 in 10.0 mi SE 8.1 mph - N/A   Clear
11:15 AM 73.4 °F - 42.8 °F 33% 30.23 in 10.0 mi ESE 6.9 mph - N/A   Clear
11:34 AM 73.4 °F - 41.0 °F 31% 30.23 in 10.0 mi ESE 8.1 mph - N/A   Clear
11:54 AM 75.2 °F - 41.0 °F 29% 30.23 in 10.0 mi SSE 8.1 mph - N/A   Clear
12:15 PM 75.2 °F - 41.0 °F 29% 30.23 in 10.0 mi SE 8.1 mph - N/A   Clear
12:34 PM 77.0 °F - 41.0 °F 28% 30.22 in 10.0 mi SE 8.1 mph - N/A   Clear
12:54 PM 77.0 °F - 42.8 °F 29% 30.21 in 10.0 mi SE 4.6 mph - N/A   Clear
1:15 PM 78.8 °F - 41.0 °F 26% 30.20 in 10.0 mi SSE 9.2 mph - N/A   Clear
1:34 PM 78.8 °F - 41.0 °F 26% 30.20 in 10.0 mi SE 9.2 mph - N/A   Clear
1:54 PM 78.8 °F - 42.8 °F 28% 30.20 in 10.0 mi ESE 9.2 mph - N/A   Clear
2:15 PM 78.8 °F - 44.6 °F 30% 30.18 in 10.0 mi ESE 4.6 mph - N/A   Clear
2:34 PM 80.6 °F - 46.4 °F 30% 30.18 in 10.0 mi ESE 8.1 mph - N/A   Clear
2:54 PM 80.6 °F - 46.4 °F 30% 30.17 in 10.0 mi ESE 9.2 mph - N/A   Clear
3:15 PM 80.6 °F - 48.2 °F 32% 30.16 in 10.0 mi SSE 9.2 mph - N/A   Clear
3:34 PM 82.4 °F - 48.2 °F 30% 30.16 in 10.0 mi ESE 5.8 mph - N/A   Clear
3:54 PM 82.4 °F - 50.0 °F 32% 30.16 in 10.0 mi SE 9.2 mph - N/A   Clear
4:15 PM 82.4 °F - 51.8 °F 35% 30.15 in 10.0 mi SSE 9.2 mph - N/A   Clear
4:34 PM 82.4 °F - 51.8 °F 35% 30.14 in 10.0 mi SE 9.2 mph - N/A   Clear
4:54 PM 82.4 °F - 51.8 °F 35% 30.14 in 10.0 mi SSE 6.9 mph - N/A   Clear
5:14 PM 82.4 °F - 51.8 °F 35% 30.13 in 10.0 mi ESE 6.9 mph - N/A   Clear
5:34 PM 82.4 °F 81.4 °F 53.6 °F 37% 30.13 in 10.0 mi SE 10.4 mph - N/A   Clear
5:54 PM 80.6 °F 80.3 °F 53.6 °F 39% 30.13 in 10.0 mi ESE 5.8 mph - N/A   Clear
6:14 PM 80.6 °F 80.5 °F 55.4 °F 42% 30.12 in 10.0 mi ESE 8.1 mph - N/A   Clear
6:34 PM 80.6 °F 80.5 °F 55.4 °F 42% 30.12 in 10.0 mi ESE 8.1 mph - N/A   Clear
6:55 PM 78.8 °F - 55.4 °F 44% 30.11 in 10.0 mi SE 4.6 mph - N/A   Clear
7:14 PM 78.8 °F - 57.2 °F 47% 30.11 in 10.0 mi SE 6.9 mph - N/A   Clear
7:34 PM 77.0 °F - 57.2 °F 50% 30.11 in 10.0 mi SE 6.9 mph - N/A   Clear
7:55 PM 75.2 °F - 59.0 °F 57% 30.11 in 10.0 mi SE 5.8 mph - N/A   Clear
8:14 PM 73.4 °F - 59.0 °F 61% 30.11 in 10.0 mi SE 5.8 mph - N/A   Clear
8:34 PM 71.6 °F - 59.0 °F 64% 30.11 in 10.0 mi SE 4.6 mph - N/A   Clear
8:55 PM 71.6 °F - 59.0 °F 64% 30.11 in 10.0 mi SE 3.5 mph - N/A   Clear
9:14 PM 71.6 °F - 60.8 °F 69% 30.11 in 10.0 mi ESE 3.5 mph - N/A   Clear
9:34 PM 71.6 °F - 60.8 °F 69% 30.11 in 10.0 mi ESE 4.6 mph - N/A   Clear
9:55 PM 69.8 °F - 59.0 °F 68% 30.11 in 10.0 mi ESE 3.5 mph - N/A   Clear
10:14 PM 69.8 °F - 59.0 °F 68% 30.10 in 10.0 mi ESE 4.6 mph - N/A   Clear
10:34 PM 68.0 °F - 59.0 °F 73% 30.10 in 10.0 mi SE 4.6 mph - N/A   Clear
10:55 PM 68.0 °F - 59.0 °F 73% 30.10 in 10.0 mi SE 4.6 mph - N/A   Clear
11:14 PM 68.0 °F - 59.0 °F 73% 30.09 in 10.0 mi ESE 4.6 mph - N/A   Clear
11:34 PM 68.0 °F - 60.8 °F 78% 30.09 in 10.0 mi ESE 3.5 mph - N/A   Clear
11:55 PM 68.0 °F - 60.8 °F 78% 30.09 in 10.0 mi ESE 3.5 mph - N/A   Clear